Terminal Aerodrome Forecast
Issued by NWS

Home | Current Version | Previous Version | Text Only | Print | Product List | Glossary On
Versions: 1 2 3 4 5 6 7 8 9 10 11 12 13 14
536
FTUS42 KTAE 110904 AAA
TAFVLD
TAF AMD
KVLD 110904Z 1109/1206 06006KT P6SM SKC
     FM111100 08005KT P6SM BKN025
     FM111400 09005KT P6SM BKN050=

USA.gov is the U.S. government's official web portal to all federal, state and local government web resources and services.